Aérodrome :
LOGIN :

S'inscrire | Disclaimer

   EN    FR    IT 

 










Légende :    VFR   VFR Marginal   IFR   IFR Intensif   IFR Très Intensif
Visi : 
Plafond : 
>= 8 km
>= 3000ft
5 à 8 km
1000 à 3000 ft
1500m à 5 km
500 à 1000 ft
800 à 1500m
200 à 500 ft
< 800m
< 200 ft
Symboles :   Orages  Brouillard  Fortes neiges  Fortes précipitations  Vent > 20 kt
SIGMETs :   Divers  Orages  Givrage  Turbulence  Onde Orograph.  Cendres Volcan.







- Altitude de l'aérodrome : 1115 ft
- Code IATA : GRZ


LOWG - Graz

DERNIER METAR :
  • 220250Z AUTO VRB02KT 9999 NSC 17/16 Q1019

METARs EXPIRÉS :
  • 220220Z AUTO VRB01KT 9999 NSC 17/16 Q1019
  • 220150Z AUTO 00000KT 9999 NSC 18/16 Q1019
  • 220120Z AUTO 00000KT 9999 NSC 18/16 Q1019
  • 220050Z AUTO VRB01KT 9999 NSC 18/16 Q1019
  • 220020Z AUTO VRB01KT 9999 NSC 18/16 Q1019

TAF TAF LOWG
Valide du 22 à 00h jusqu'au 23 à 00h UTC


212315Z 2200/2224 33003KT CAVOK TX30/2214Z TN17/2204Z
BECMG 2208/2210 14006KT 9999 FEW060
TEMPO 2211/2217 FEW060 FEW060CB
Pas de NOTAMs connus pour ce terrain.



MET'MAP, la Météo Aéronautique d'un coup d'oeil ! - Copyright ORBIFLY Décembre 2007 - Disclaimer

ORBIFLY MET'MAP TEAM :

Programmation & Développement : Alexandra Zaïnal
Conception & Développement : Baudouin d'Aumeries
Co-Programmation & Développement : Marc-Olivier Méhu
Soutien technique & logistique : Manuel Goepfert

Contact : metmap@orbifly.com




SOURCES & CREDITS :

   NOAA